CheckWX is a tool to help pilots better visualize weather data.  It is not intended as a substitute for an official pre-flight weather briefing.

09:47:17 UTC

KTKX METAR
Kennett Memorial Airport
Kennett, Missouri, USA
Current

12 mins ago

KTKX 310935Z AUTO 01006KT 10SM CLR 16/14 A3018 RMK AO2
Observed
May-31 @ 09:35 UTC
Wind
  • 010° at 6 KTS
Visibility
Flight Rules
VFR
Cloud Levels
  • Clear skies
Temperature
16°C / 61°F
Dewpoint
14°C / 57°F
Humidity
88%
Altimeter
30.18" Hg
Pressure
1022.02 hPa
Previous

32 mins ago

KTKX 310915Z AUTO 36006KT 10SM CLR 16/14 A3018 RMK AO2
Observed
May-31 @ 09:15 UTC
Wind
  • 360° at 6 KTS
Visibility
Flight Rules
VFR
Cloud Levels
  • Clear skies
Temperature
16°C / 61°F
Dewpoint
14°C / 57°F
Humidity
88%
Altimeter
30.18" Hg
Pressure
1022.02 hPa
Previous

52 mins ago

KTKX 310855Z AUTO 35006KT 10SM CLR 16/14 A3018 RMK AO2
Observed
May-31 @ 08:55 UTC
Wind
  • 350° at 6 KTS
Visibility
Flight Rules
VFR
Cloud Levels
  • Clear skies
Temperature
16°C / 61°F
Dewpoint
14°C / 57°F
Humidity
88%
Altimeter
30.18" Hg
Pressure
1022.02 hPa